Clericy, Canada
Current Conditions -  °F | °C
As of 11:00 PM on Monday 22 Dec 2014 (Local Time) from CYUY Reporting Station
Light Snow Light Snow  
Wind Chill: 10°   Ceiling: 2000
Heat Index: 19°   Visibility: 15mi
Dew Point: 18°   Wind: 7mph
Humidity: 93%   Direction: 140°SE
Pressure: 30.13"   Gusts: NA
Location:  48.37°N, 78.87°W
Report Text: CYUY 230400Z 14006KT 15SM -SN SCT007 OVC020 M07/M08 A3013 RMK SF4SC4 SLP226
Loading
Personal Weather Stations






























Interactive Weather Map New forecast layout! Learn more

10-Day Weather Forecast

Advertisements
Track Severe Weather on mobile